createdAt,value
2018-08-28T00:01:55.644Z,16.30
2018-08-28T00:04:24.035Z,16.30
2018-08-28T00:06:52.437Z,16.30
2018-08-28T00:09:20.838Z,16.30
2018-08-28T00:11:49.433Z,16.30
2018-08-28T00:14:17.839Z,16.30
2018-08-28T00:16:46.235Z,16.30
2018-08-28T00:19:14.637Z,16.30
2018-08-28T00:21:43.230Z,16.30
2018-08-28T00:24:11.614Z,16.40
2018-08-28T00:26:40.309Z,16.30
2018-08-28T00:29:08.712Z,16.30
2018-08-28T00:31:37.126Z,16.30
2018-08-28T00:34:05.546Z,16.30
2018-08-28T00:36:33.925Z,16.30
2018-08-28T00:39:02.399Z,16.30
2018-08-28T00:41:30.790Z,16.30
2018-08-28T00:43:59.178Z,16.30
2018-08-28T00:46:27.580Z,16.30
2018-08-28T00:48:55.982Z,16.30
2018-08-28T00:51:24.374Z,16.30
2018-08-28T00:53:52.772Z,16.30
2018-08-28T00:56:21.158Z,16.30
2018-08-28T00:58:49.544Z,16.30
2018-08-28T01:01:17.954Z,16.30
2018-08-28T01:03:46.362Z,16.30
2018-08-28T01:06:14.746Z,16.30
2018-08-28T01:08:43.142Z,16.30
2018-08-28T01:11:11.950Z,16.30
2018-08-28T01:13:40.957Z,16.30
2018-08-28T01:16:09.369Z,16.30
2018-08-28T01:18:37.929Z,16.30
2018-08-28T01:21:06.355Z,16.30
2018-08-28T01:23:35.239Z,16.30
2018-08-28T01:26:03.647Z,16.30
2018-08-28T01:28:32.039Z,16.30
2018-08-28T01:31:00.444Z,16.30
2018-08-28T01:33:28.841Z,16.30
2018-08-28T01:35:57.229Z,16.30
2018-08-28T01:38:26.142Z,16.30
2018-08-28T01:40:54.535Z,16.30
2018-08-28T01:43:23.634Z,16.30
2018-08-28T01:45:53.663Z,16.30
2018-08-28T01:48:22.097Z,16.30
2018-08-28T01:50:51.302Z,16.30
2018-08-28T01:53:19.697Z,16.30
2018-08-28T01:55:48.085Z,16.30
2018-08-28T01:58:16.899Z,16.30
2018-08-28T02:00:45.327Z,16.30
2018-08-28T02:03:14.670Z,16.30
2018-08-28T02:05:43.100Z,16.30
2018-08-28T02:08:11.502Z,16.30
2018-08-28T02:10:40.119Z,16.40
2018-08-28T02:13:08.990Z,16.40
2018-08-28T02:15:37.384Z,16.40
2018-08-28T02:18:06.542Z,16.40
2018-08-28T02:20:34.939Z,16.40
2018-08-28T02:23:03.759Z,16.40
2018-08-28T02:25:32.154Z,16.40
2018-08-28T02:28:00.542Z,16.40
2018-08-28T02:30:28.938Z,16.40
2018-08-28T02:32:57.352Z,16.40
2018-08-28T02:35:26.327Z,16.40
2018-08-28T02:37:54.742Z,16.40
2018-08-28T02:40:23.132Z,16.40
2018-08-28T02:42:51.530Z,16.40
2018-08-28T02:45:19.934Z,16.40
2018-08-28T02:47:48.338Z,16.40
2018-08-28T02:50:16.858Z,16.40
2018-08-28T02:52:45.242Z,16.40
2018-08-28T02:55:13.644Z,16.50
2018-08-28T02:57:42.045Z,16.50
2018-08-28T03:00:10.435Z,16.50
2018-08-28T03:02:38.830Z,16.50
2018-08-28T03:05:07.251Z,16.50
2018-08-28T03:07:35.628Z,16.50
2018-08-28T03:10:04.548Z,16.50
2018-08-28T03:12:32.945Z,16.60
2018-08-28T03:15:01.518Z,16.60
2018-08-28T03:17:29.934Z,16.60
2018-08-28T03:19:58.581Z,16.60
2018-08-28T03:22:26.974Z,16.50
2018-08-28T03:24:55.371Z,16.60
2018-08-28T03:27:23.934Z,16.50
2018-08-28T03:29:52.330Z,16.50
2018-08-28T03:32:20.743Z,16.50
2018-08-28T03:34:49.151Z,16.50
2018-08-28T03:37:17.857Z,16.50
2018-08-28T03:39:46.262Z,16.50
2018-08-28T03:42:14.657Z,16.50
2018-08-28T03:44:43.105Z,16.50
2018-08-28T03:47:12.289Z,16.40
2018-08-28T03:49:40.775Z,16.40
2018-08-28T03:52:09.178Z,16.40
2018-08-28T03:54:37.599Z,16.40
2018-08-28T03:57:06.003Z,16.40
2018-08-28T03:59:34.838Z,16.40
2018-08-28T04:02:03.243Z,16.40
2018-08-28T04:04:31.653Z,16.40
2018-08-28T04:07:00.298Z,16.40
2018-08-28T04:09:29.138Z,16.40
2018-08-28T04:11:57.538Z,16.40
2018-08-28T04:14:26.239Z,16.40
2018-08-28T04:16:54.649Z,16.40
2018-08-28T04:19:23.040Z,16.30
2018-08-28T04:21:51.460Z,16.40
2018-08-28T04:24:19.848Z,16.40
2018-08-28T04:26:48.244Z,16.30
2018-08-28T04:29:16.652Z,16.30
2018-08-28T04:31:45.031Z,16.30
2018-08-28T04:34:13.433Z,16.30
2018-08-28T04:36:41.831Z,16.30
2018-08-28T04:39:10.229Z,16.40
2018-08-28T04:41:38.647Z,16.30
2018-08-28T04:44:07.054Z,16.40
2018-08-28T04:46:35.465Z,16.40
2018-08-28T04:49:03.861Z,16.40
2018-08-28T04:51:32.313Z,16.30
2018-08-28T04:54:00.739Z,16.40
2018-08-28T04:56:29.170Z,16.40
2018-08-28T04:58:57.581Z,16.30
2018-08-28T05:01:26.206Z,16.40
2018-08-28T05:03:55.378Z,16.30
2018-08-28T05:06:23.774Z,16.30
2018-08-28T05:08:52.196Z,16.30
2018-08-28T05:11:20.594Z,16.30
2018-08-28T05:13:49.006Z,16.30
2018-08-28T05:16:17.636Z,16.30
2018-08-28T05:18:46.678Z,16.40
2018-08-28T05:21:15.089Z,16.40
2018-08-28T05:23:43.590Z,16.40
2018-08-28T05:26:11.980Z,16.40
2018-08-28T05:28:40.598Z,16.40
2018-08-28T05:31:09.013Z,16.40
2018-08-28T05:33:37.410Z,16.40
2018-08-28T05:36:05.857Z,16.40
2018-08-28T05:38:34.276Z,16.40
2018-08-28T05:41:03.483Z,16.50
2018-08-28T05:43:32.137Z,16.50
2018-08-28T05:46:00.993Z,16.50
2018-08-28T05:48:29.385Z,16.50
2018-08-28T05:50:57.791Z,16.50
2018-08-28T05:53:26.188Z,16.50
2018-08-28T05:55:54.673Z,16.60
2018-08-28T05:58:23.009Z,16.50
2018-08-28T06:00:51.519Z,16.50
2018-08-28T06:03:20.479Z,16.60
2018-08-28T06:05:48.763Z,16.60
2018-08-28T06:08:17.205Z,16.60
2018-08-28T06:10:45.802Z,16.60
2018-08-28T06:13:14.193Z,16.60
2018-08-28T06:15:42.871Z,16.60
2018-08-28T06:18:11.289Z,16.70
2018-08-28T06:20:39.683Z,16.70
2018-08-28T06:23:08.330Z,16.70
2018-08-28T06:25:36.761Z,16.80
2018-08-28T06:28:05.192Z,16.80
2018-08-28T06:30:33.766Z,16.80
2018-08-28T06:33:02.174Z,16.80
2018-08-28T06:35:30.608Z,16.80
2018-08-28T06:37:59.294Z,16.90
2018-08-28T06:40:27.710Z,16.90
2018-08-28T06:42:56.186Z,16.90
2018-08-28T06:45:25.032Z,17.00
2018-08-28T06:47:53.658Z,17.00
2018-08-28T06:50:22.055Z,17.10
2018-08-28T06:52:50.444Z,17.00
2018-08-28T06:55:18.834Z,17.00
2018-08-28T06:57:47.272Z,17.10
2018-08-28T07:00:15.664Z,17.10
2018-08-28T07:02:44.055Z,17.20
2018-08-28T07:05:12.486Z,17.20
2018-08-28T07:07:41.374Z,17.20
2018-08-28T07:10:09.881Z,17.20
2018-08-28T07:12:38.260Z,17.30
2018-08-28T07:15:07.187Z,17.30
2018-08-28T07:17:35.570Z,17.40
2018-08-28T07:20:03.995Z,17.50
2018-08-28T07:22:32.431Z,17.50
2018-08-28T07:25:00.827Z,17.60
2018-08-28T07:27:29.216Z,17.60
2018-08-28T07:29:57.602Z,17.70
2018-08-28T07:32:25.986Z,17.70
2018-08-28T07:34:54.393Z,17.80
2018-08-28T07:37:22.845Z,17.80
2018-08-28T07:39:51.705Z,17.90
2018-08-28T07:42:20.062Z,18.00
2018-08-28T07:44:48.483Z,18.00
2018-08-28T07:47:16.941Z,18.10
2018-08-28T07:49:45.447Z,17.90
2018-08-28T07:52:13.857Z,17.90
2018-08-28T07:54:42.407Z,18.00
2018-08-28T07:57:10.837Z,18.00
2018-08-28T07:59:39.231Z,18.10
2018-08-28T08:02:07.628Z,18.10
2018-08-28T08:04:38.109Z,18.20
2018-08-28T08:07:07.610Z,18.30
2018-08-28T08:09:36.045Z,18.30
2018-08-28T08:12:04.574Z,18.30
2018-08-28T08:14:32.995Z,18.30
2018-08-28T08:17:01.429Z,18.30
2018-08-28T08:19:29.807Z,18.40
2018-08-28T08:21:58.253Z,18.40
2018-08-28T08:24:26.640Z,18.50
2018-08-28T08:26:55.038Z,18.50
2018-08-28T08:29:23.434Z,18.50
2018-08-28T08:31:51.832Z,18.60
2018-08-28T08:34:20.256Z,18.70
2018-08-28T08:36:48.761Z,18.80
2018-08-28T08:39:17.448Z,18.90
2018-08-28T08:41:46.313Z,19.00
2018-08-28T08:44:14.862Z,19.00
2018-08-28T08:46:43.688Z,19.00
2018-08-28T08:49:12.181Z,19.10
2018-08-28T08:51:41.307Z,19.20
2018-08-28T08:54:09.738Z,19.30
2018-08-28T08:56:38.152Z,19.30
2018-08-28T08:59:07.096Z,19.40
2018-08-28T09:01:36.338Z,19.50
2018-08-28T09:04:05.118Z,19.60
2018-08-28T09:06:33.602Z,19.70
2018-08-28T09:09:02.119Z,19.70
2018-08-28T09:11:30.511Z,19.80
2018-08-28T09:13:59.033Z,19.90
2018-08-28T09:16:28.139Z,19.90
2018-08-28T09:18:56.555Z,20.00
2018-08-28T09:21:24.969Z,20.00
2018-08-28T09:23:53.372Z,20.10
2018-08-28T09:26:21.776Z,20.10
2018-08-28T09:28:50.185Z,20.20
2018-08-28T09:31:18.591Z,20.20
2018-08-28T09:33:47.000Z,20.00
2018-08-28T09:36:15.435Z,20.00
2018-08-28T09:38:44.078Z,20.10
2018-08-28T09:41:12.509Z,20.20
2018-08-28T09:43:41.477Z,20.30
2018-08-28T09:46:09.915Z,20.40
2018-08-28T09:48:38.841Z,20.60
2018-08-28T09:51:08.344Z,20.60
2018-08-28T09:53:36.776Z,20.60
2018-08-28T09:56:05.737Z,20.70
2018-08-28T09:58:34.125Z,20.80
2018-08-28T10:01:07.933Z,20.80
2018-08-28T10:03:36.331Z,20.80
2018-08-28T10:06:05.019Z,20.80
2018-08-28T10:08:33.418Z,20.80
2018-08-28T10:11:02.404Z,20.70
2018-08-28T10:13:30.744Z,20.70
2018-08-28T10:15:59.244Z,20.60
2018-08-28T10:18:27.636Z,20.60
2018-08-28T10:20:56.778Z,20.50
2018-08-28T10:23:25.880Z,20.50
2018-08-28T10:25:54.284Z,20.50
2018-08-28T10:28:22.822Z,20.40
2018-08-28T10:30:51.228Z,20.30
2018-08-28T10:33:19.622Z,20.20
2018-08-28T10:35:48.018Z,20.20
2018-08-28T10:38:16.767Z,20.20
2018-08-28T10:40:45.023Z,20.20
2018-08-28T10:43:13.463Z,20.10
2018-08-28T10:45:41.874Z,20.10
2018-08-28T10:48:10.296Z,20.00
2018-08-28T10:50:38.689Z,19.90
2018-08-28T10:53:07.258Z,19.80
2018-08-28T10:55:35.839Z,19.70
2018-08-28T10:58:04.274Z,19.70
2018-08-28T11:00:32.671Z,19.60
2018-08-28T11:03:01.114Z,19.50
2018-08-28T11:05:29.495Z,19.50
2018-08-28T11:07:57.934Z,19.40
2018-08-28T11:10:26.365Z,19.30
2018-08-28T11:12:54.773Z,19.30
2018-08-28T11:15:23.197Z,19.30
2018-08-28T11:17:51.589Z,19.30
2018-08-28T11:20:19.991Z,19.40
2018-08-28T11:22:48.432Z,19.40
2018-08-28T11:25:16.799Z,19.50
2018-08-28T11:27:45.269Z,19.60
2018-08-28T11:30:13.713Z,19.70
2018-08-28T11:32:42.139Z,19.70
2018-08-28T11:35:10.531Z,19.70
2018-08-28T11:37:38.969Z,19.80
2018-08-28T11:40:07.370Z,19.80
2018-08-28T11:42:35.769Z,19.90
2018-08-28T11:45:04.177Z,20.00
2018-08-28T11:47:32.606Z,20.00
2018-08-28T11:50:01.042Z,20.10
2018-08-28T11:52:29.495Z,20.20
2018-08-28T11:54:58.152Z,20.20
2018-08-28T11:57:26.555Z,20.30
2018-08-28T11:59:54.978Z,20.30
2018-08-28T12:02:23.382Z,20.40
2018-08-28T12:04:51.828Z,20.40
2018-08-28T12:07:20.266Z,20.50
2018-08-28T12:09:48.639Z,20.50
2018-08-28T12:12:17.530Z,20.70
2018-08-28T12:14:45.974Z,20.80
2018-08-28T12:17:14.998Z,21.00
2018-08-28T12:19:43.857Z,21.10
2018-08-28T12:22:12.983Z,21.20
2018-08-28T12:24:41.859Z,21.30
2018-08-28T12:27:10.332Z,21.50
2018-08-28T12:29:38.820Z,21.50
2018-08-28T12:32:07.165Z,21.50
2018-08-28T12:34:35.563Z,21.60
2018-08-28T12:37:04.243Z,21.60
2018-08-28T12:39:32.657Z,21.60
2018-08-28T12:42:01.069Z,21.60
2018-08-28T12:44:29.679Z,21.70
2018-08-28T12:46:58.094Z,21.80
2018-08-28T12:49:26.495Z,21.90
2018-08-28T12:51:54.895Z,21.90
2018-08-28T12:54:23.302Z,22.00
2018-08-28T12:56:52.111Z,22.10
2018-08-28T12:59:20.502Z,22.20
2018-08-28T13:01:48.914Z,22.30
2018-08-28T13:04:17.312Z,22.30
2018-08-28T13:06:45.696Z,22.30
2018-08-28T13:09:14.138Z,22.40
2018-08-28T13:11:42.993Z,22.40
2018-08-28T13:14:11.397Z,22.30
2018-08-28T13:16:39.807Z,22.20
2018-08-28T13:19:09.070Z,22.20
2018-08-28T13:21:37.473Z,22.10
2018-08-28T13:24:05.875Z,22.00
2018-08-28T13:26:34.271Z,21.90
2018-08-28T13:29:02.655Z,21.90
2018-08-28T13:31:31.063Z,21.90
2018-08-28T13:33:59.478Z,21.90
2018-08-28T13:36:27.873Z,22.00
2018-08-28T13:38:56.280Z,22.10
2018-08-28T13:41:24.670Z,22.20
2018-08-28T13:43:53.064Z,22.20
2018-08-28T13:46:21.491Z,22.20
2018-08-28T13:48:49.895Z,22.30
2018-08-28T13:51:18.359Z,22.30
2018-08-28T13:53:47.132Z,22.40
2018-08-28T13:56:15.542Z,22.60
2018-08-28T13:58:43.967Z,22.60
2018-08-28T14:01:12.428Z,22.70
2018-08-28T14:03:41.194Z,22.90
2018-08-28T14:06:09.603Z,23.10
2018-08-28T14:08:38.071Z,23.40
2018-08-28T14:11:06.154Z,23.60
2018-08-28T14:13:34.554Z,23.80
2018-08-28T14:16:02.968Z,23.90
2018-08-28T14:18:31.378Z,24.00
2018-08-28T14:20:59.792Z,24.00
2018-08-28T14:23:28.189Z,24.00
2018-08-28T14:25:56.609Z,24.10
2018-08-28T14:28:25.024Z,24.20
2018-08-28T14:30:53.456Z,24.30
2018-08-28T14:33:21.875Z,24.60
2018-08-28T14:35:50.276Z,24.90
2018-08-28T14:38:18.683Z,25.00
2018-08-28T14:40:47.099Z,25.10
2018-08-28T14:43:15.497Z,25.20
2018-08-28T14:45:43.915Z,25.30
2018-08-28T14:48:12.742Z,25.40
2018-08-28T14:50:41.153Z,25.60
2018-08-28T14:53:09.563Z,25.70
2018-08-28T14:55:38.313Z,25.60
2018-08-28T14:58:06.808Z,25.50
2018-08-28T15:00:35.265Z,25.30
2018-08-28T15:03:09.694Z,25.00
2018-08-28T15:05:38.173Z,24.90
2018-08-28T15:08:06.586Z,25.00
2018-08-28T15:10:35.002Z,25.10
2018-08-28T15:13:03.424Z,25.30
2018-08-28T15:15:31.824Z,25.50
2018-08-28T15:18:00.250Z,25.70
2018-08-28T15:20:28.655Z,25.90
2018-08-28T15:22:57.071Z,25.80
2018-08-28T15:25:25.468Z,25.80
2018-08-28T15:27:59.270Z,25.50
2018-08-28T15:30:35.547Z,25.40
2018-08-28T15:33:04.484Z,25.30
2018-08-28T15:35:35.165Z,25.20
2018-08-28T15:38:05.608Z,25.30
2018-08-28T15:40:34.923Z,25.40
2018-08-28T15:43:03.321Z,25.40
2018-08-28T15:45:31.872Z,25.50
2018-08-28T15:48:00.267Z,25.40
2018-08-28T15:50:28.671Z,25.40
2018-08-28T15:52:57.058Z,25.50
2018-08-28T15:55:25.482Z,25.80
2018-08-28T15:57:54.219Z,26.10
2018-08-28T16:00:22.634Z,26.40
2018-08-28T16:02:51.379Z,26.60
2018-08-28T16:05:19.770Z,26.60
2018-08-28T16:07:48.150Z,26.60
2018-08-28T16:10:16.584Z,26.70
2018-08-28T16:12:45.713Z,26.80
2018-08-28T16:15:14.118Z,26.90
2018-08-28T16:17:42.652Z,26.90
2018-08-28T16:20:11.076Z,27.10
2018-08-28T16:22:43.897Z,27.20
2018-08-28T16:25:12.708Z,27.30
2018-08-28T16:27:41.131Z,27.30
2018-08-28T16:30:09.669Z,27.10
2018-08-28T16:32:38.280Z,27.00
2018-08-28T16:35:06.813Z,26.90
2018-08-28T16:37:35.217Z,26.80
2018-08-28T16:40:04.046Z,26.60
2018-08-28T16:42:32.453Z,26.50
2018-08-28T16:45:01.548Z,26.50
2018-08-28T16:47:29.961Z,26.50
2018-08-28T16:49:58.380Z,26.30
2018-08-28T16:52:26.799Z,26.30
2018-08-28T16:54:55.227Z,26.30
2018-08-28T16:57:23.631Z,26.30
2018-08-28T16:59:52.035Z,26.40
2018-08-28T17:02:20.474Z,26.40
2018-08-28T17:04:48.873Z,26.40
2018-08-28T17:07:17.509Z,26.40
2018-08-28T17:09:45.838Z,26.40
2018-08-28T17:12:14.235Z,26.20
2018-08-28T17:14:42.677Z,26.00
2018-08-28T17:17:11.019Z,26.00
2018-08-28T17:19:39.805Z,26.00
2018-08-28T17:22:08.217Z,25.90
2018-08-28T17:24:36.633Z,25.70
2018-08-28T17:27:05.724Z,25.40
2018-08-28T17:29:34.278Z,25.20
2018-08-28T17:32:02.674Z,25.30
2018-08-28T17:34:31.097Z,25.40
2018-08-28T17:37:00.265Z,25.40
2018-08-28T17:39:28.647Z,25.10
2018-08-28T17:41:57.049Z,24.70
2018-08-28T17:44:25.448Z,24.50
2018-08-28T17:46:54.306Z,24.40
2018-08-28T17:49:22.700Z,24.40
2018-08-28T17:51:51.116Z,24.30
2018-08-28T17:54:19.559Z,24.00
2018-08-28T17:56:48.056Z,23.90
2018-08-28T17:59:16.529Z,23.70
2018-08-28T18:01:44.941Z,23.70
2018-08-28T18:04:13.336Z,23.70
2018-08-28T18:06:41.731Z,23.60
2018-08-28T18:09:10.127Z,23.50
2018-08-28T18:11:38.546Z,23.30
2018-08-28T18:14:06.943Z,23.20
2018-08-28T18:16:35.427Z,23.10
2018-08-28T18:19:03.768Z,22.90
2018-08-28T18:21:32.476Z,22.70
2018-08-28T18:24:01.490Z,22.50
2018-08-28T18:26:29.890Z,22.20
2018-08-28T18:28:58.419Z,21.90
2018-08-28T18:31:26.791Z,21.50
2018-08-28T18:33:55.629Z,21.30
2018-08-28T18:36:24.097Z,21.00
2018-08-28T18:38:52.515Z,20.70
2018-08-28T18:41:21.032Z,20.40
2018-08-28T18:43:49.477Z,20.10
2018-08-28T18:46:17.865Z,19.90
2018-08-28T18:48:46.279Z,19.80
2018-08-28T18:51:15.972Z,19.70
2018-08-28T18:53:44.656Z,19.60
2018-08-28T18:56:13.067Z,19.40
2018-08-28T18:58:41.476Z,19.20
2018-08-28T19:01:09.937Z,19.00
2018-08-28T19:03:38.446Z,18.90
2018-08-28T19:06:06.963Z,18.80
2018-08-28T19:08:35.455Z,18.70
2018-08-28T19:11:07.542Z,18.60
2018-08-28T19:13:36.032Z,18.50
2018-08-28T19:16:04.650Z,18.40
2018-08-28T19:18:33.144Z,18.30
2018-08-28T19:21:02.034Z,18.20
2018-08-28T19:23:30.694Z,18.10
2018-08-28T19:25:59.167Z,18.00
2018-08-28T19:28:27.540Z,18.00
2018-08-28T19:30:56.375Z,18.00
2018-08-28T19:33:24.773Z,17.80
2018-08-28T19:35:53.245Z,17.80
2018-08-28T19:38:21.825Z,17.60
2018-08-28T19:40:51.210Z,17.50
2018-08-28T19:43:19.682Z,17.40
2018-08-28T19:45:48.054Z,17.40
2018-08-28T19:48:16.476Z,17.40
2018-08-28T19:50:44.880Z,17.30
2018-08-28T19:53:13.526Z,17.20
2018-08-28T19:55:41.945Z,17.10
2018-08-28T19:58:10.440Z,17.10
2018-08-28T20:00:38.822Z,17.10
2018-08-28T20:03:07.240Z,17.10
2018-08-28T20:05:35.679Z,17.00
2018-08-28T20:08:04.152Z,16.90
2018-08-28T20:10:32.552Z,16.90
2018-08-28T20:13:00.998Z,16.90
2018-08-28T20:15:29.397Z,16.90
2018-08-28T20:17:57.879Z,16.80
2018-08-28T20:20:26.295Z,16.80
2018-08-28T20:22:54.711Z,16.70
2018-08-28T20:25:23.141Z,16.60
2018-08-28T20:27:51.548Z,16.50
2018-08-28T20:30:19.951Z,16.40
2018-08-28T20:32:48.347Z,16.30
2018-08-28T20:35:16.775Z,16.30
2018-08-28T20:37:45.185Z,16.30
2018-08-28T20:40:13.593Z,16.20
2018-08-28T20:42:42.012Z,16.20
2018-08-28T20:45:10.416Z,16.20
2018-08-28T20:47:38.818Z,16.20
2018-08-28T20:50:07.207Z,16.20
2018-08-28T20:52:35.611Z,16.10
2018-08-28T20:55:04.020Z,16.00
2018-08-28T20:57:32.423Z,15.90
2018-08-28T21:00:00.828Z,15.90
2018-08-28T21:02:29.383Z,15.80
2018-08-28T21:04:57.783Z,15.80
2018-08-28T21:07:26.434Z,15.80
2018-08-28T21:09:54.825Z,15.80
2018-08-28T21:12:23.211Z,15.80
2018-08-28T21:14:51.602Z,15.80
2018-08-28T21:17:19.996Z,15.70
2018-08-28T21:19:48.774Z,15.60
2018-08-28T21:22:17.205Z,15.60
2018-08-28T21:24:45.850Z,15.50
2018-08-28T21:27:14.408Z,15.50
2018-08-28T21:29:47.794Z,15.50
2018-08-28T21:32:16.195Z,15.50
2018-08-28T21:34:44.596Z,15.50
2018-08-28T21:37:13.040Z,15.40
2018-08-28T21:39:41.468Z,15.40
2018-08-28T21:42:09.909Z,15.30
2018-08-28T21:44:38.289Z,15.20
2018-08-28T21:47:07.042Z,15.10
2018-08-28T21:49:35.432Z,15.20
2018-08-28T21:52:03.806Z,15.20
2018-08-28T21:54:32.185Z,15.20
2018-08-28T21:57:00.562Z,15.10
2018-08-28T21:59:28.957Z,15.00
2018-08-28T22:01:57.346Z,14.90
2018-08-28T22:04:25.723Z,14.80
2018-08-28T22:06:59.985Z,14.70
2018-08-28T22:09:28.228Z,14.60
2018-08-28T22:11:56.719Z,14.70
2018-08-28T22:14:25.094Z,14.70
2018-08-28T22:16:53.526Z,14.70
2018-08-28T22:19:21.920Z,14.70
2018-08-28T22:21:50.314Z,14.70
2018-08-28T22:24:18.712Z,14.60
2018-08-28T22:26:47.090Z,14.60
2018-08-28T22:29:15.510Z,14.60
2018-08-28T22:31:43.900Z,14.60
2018-08-28T22:34:12.311Z,14.60
2018-08-28T22:36:40.696Z,14.50
2018-08-28T22:39:09.090Z,14.50
2018-08-28T22:41:37.468Z,14.60
2018-08-28T22:44:05.855Z,14.60
2018-08-28T22:46:34.249Z,14.60
2018-08-28T22:49:04.543Z,14.60
2018-08-28T22:51:32.923Z,14.60
2018-08-28T22:54:01.389Z,14.60
2018-08-28T22:56:30.324Z,14.50
2018-08-28T22:58:58.757Z,14.50
2018-08-28T23:01:27.145Z,14.50
2018-08-28T23:03:55.539Z,14.50
2018-08-28T23:06:23.920Z,14.40
2018-08-28T23:08:52.343Z,14.40
2018-08-28T23:11:20.774Z,14.40
2018-08-28T23:13:49.173Z,14.30
2018-08-28T23:16:17.581Z,14.20
2018-08-28T23:18:45.986Z,14.10
2018-08-28T23:21:14.365Z,14.10
2018-08-28T23:23:42.753Z,14.00
2018-08-28T23:26:11.157Z,14.00
2018-08-28T23:28:39.553Z,14.00
2018-08-28T23:31:07.976Z,14.00
2018-08-28T23:33:36.361Z,14.00
2018-08-28T23:36:04.747Z,14.00
2018-08-28T23:38:33.147Z,14.00
2018-08-28T23:41:01.554Z,14.00
2018-08-28T23:43:29.942Z,14.00
2018-08-28T23:45:58.319Z,14.00
2018-08-28T23:48:26.701Z,13.90
2018-08-28T23:50:55.094Z,13.90
2018-08-28T23:53:23.564Z,13.90
2018-08-28T23:55:51.975Z,14.00
2018-08-28T23:58:20.382Z,14.00
